sensor_id;sensor_type;location;lat;lon;timestamp;P1;durP1;ratioP1;P2;durP2;ratioP2
15831;SDS011;8016;49.928;9.372;2023-05-24T00:00:41;8.00;;;4.37;;
15831;SDS011;8016;49.928;9.372;2023-05-24T00:03:07;11.03;;;4.67;;
15831;SDS011;8016;49.928;9.372;2023-05-24T00:05:33;8.27;;;4.70;;
15831;SDS011;8016;49.928;9.372;2023-05-24T00:08:05;7.70;;;4.70;;
15831;SDS011;8016;49.928;9.372;2023-05-24T00:10:31;11.57;;;4.83;;
15831;SDS011;8016;49.928;9.372;2023-05-24T00:12:57;10.13;;;4.90;;
15831;SDS011;8016;49.928;9.372;2023-05-24T00:15:23;7.33;;;5.00;;
15831;SDS011;8016;49.928;9.372;2023-05-24T00:17:48;9.07;;;5.17;;
15831;SDS011;8016;49.928;9.372;2023-05-24T00:20:15;6.07;;;4.57;;
15831;SDS011;8016;49.928;9.372;2023-05-24T00:22:41;9.70;;;5.00;;
15831;SDS011;8016;49.928;9.372;2023-05-24T00:25:08;10.17;;;4.87;;
15831;SDS011;8016;49.928;9.372;2023-05-24T00:27:34;9.67;;;5.27;;
15831;SDS011;8016;49.928;9.372;2023-05-24T00:30:01;9.70;;;5.37;;
15831;SDS011;8016;49.928;9.372;2023-05-24T00:32:27;10.63;;;6.00;;
15831;SDS011;8016;49.928;9.372;2023-05-24T00:34:53;8.50;;;5.10;;
15831;SDS011;8016;49.928;9.372;2023-05-24T00:37:19;8.23;;;5.47;;
15831;SDS011;8016;49.928;9.372;2023-05-24T00:39:45;6.37;;;5.00;;
15831;SDS011;8016;49.928;9.372;2023-05-24T00:42:11;8.77;;;5.13;;
15831;SDS011;8016;49.928;9.372;2023-05-24T00:44:37;11.83;;;5.07;;
15831;SDS011;8016;49.928;9.372;2023-05-24T00:47:03;11.30;;;5.73;;
15831;SDS011;8016;49.928;9.372;2023-05-24T00:49:29;8.07;;;4.70;;
15831;SDS011;8016;49.928;9.372;2023-05-24T00:51:55;9.87;;;5.33;;
15831;SDS011;8016;49.928;9.372;2023-05-24T00:54:21;7.90;;;4.80;;
15831;SDS011;8016;49.928;9.372;2023-05-24T00:56:50;7.47;;;5.00;;
15831;SDS011;8016;49.928;9.372;2023-05-24T00:59:16;9.70;;;5.30;;
15831;SDS011;8016;49.928;9.372;2023-05-24T01:01:42;10.57;;;5.77;;
15831;SDS011;8016;49.928;9.372;2023-05-24T01:04:11;7.77;;;5.53;;
15831;SDS011;8016;49.928;9.372;2023-05-24T01:09:25;9.23;;;4.97;;
15831;SDS011;8016;49.928;9.372;2023-05-24T01:11:58;8.63;;;5.10;;
15831;SDS011;8016;49.928;9.372;2023-05-24T01:14:30;10.63;;;5.37;;
15831;SDS011;8016;49.928;9.372;2023-05-24T01:17:16;8.63;;;5.63;;
15831;SDS011;8016;49.928;9.372;2023-05-24T01:19:55;7.97;;;5.50;;
15831;SDS011;8016;49.928;9.372;2023-05-24T01:27:35;8.97;;;5.50;;
15831;SDS011;8016;49.928;9.372;2023-05-24T01:30:02;6.57;;;4.80;;
15831;SDS011;8016;49.928;9.372;2023-05-24T01:32:28;9.47;;;5.27;;
15831;SDS011;8016;49.928;9.372;2023-05-24T01:34:54;10.73;;;6.10;;
15831;SDS011;8016;49.928;9.372;2023-05-24T01:37:20;8.13;;;6.50;;
15831;SDS011;8016;49.928;9.372;2023-05-24T01:39:46;8.80;;;5.87;;
15831;SDS011;8016;49.928;9.372;2023-05-24T01:44:42;8.37;;;5.97;;
15831;SDS011;8016;49.928;9.372;2023-05-24T01:47:19;11.47;;;5.50;;
15831;SDS011;8016;49.928;9.372;2023-05-24T01:49:49;12.50;;;5.60;;
15831;SDS011;8016;49.928;9.372;2023-05-24T01:52:16;9.43;;;5.73;;
15831;SDS011;8016;49.928;9.372;2023-05-24T01:54:44;12.43;;;7.10;;
15831;SDS011;8016;49.928;9.372;2023-05-24T01:57:14;9.70;;;5.60;;
15831;SDS011;8016;49.928;9.372;2023-05-24T01:59:40;14.70;;;5.90;;
15831;SDS011;8016;49.928;9.372;2023-05-24T02:02:08;12.10;;;5.83;;
15831;SDS011;8016;49.928;9.372;2023-05-24T02:04:34;11.97;;;6.53;;
15831;SDS011;8016;49.928;9.372;2023-05-24T02:07:01;9.70;;;5.27;;
15831;SDS011;8016;49.928;9.372;2023-05-24T02:09:27;15.10;;;6.17;;
15831;SDS011;8016;49.928;9.372;2023-05-24T02:11:53;12.80;;;5.57;;
15831;SDS011;8016;49.928;9.372;2023-05-24T02:14:19;9.20;;;4.73;;
15831;SDS011;8016;49.928;9.372;2023-05-24T02:16:45;9.60;;;4.77;;
15831;SDS011;8016;49.928;9.372;2023-05-24T02:19:11;11.33;;;5.10;;
15831;SDS011;8016;49.928;9.372;2023-05-24T02:21:37;5.90;;;4.83;;
15831;SDS011;8016;49.928;9.372;2023-05-24T02:24:05;11.17;;;5.43;;
15831;SDS011;8016;49.928;9.372;2023-05-24T02:26:31;10.00;;;5.17;;
15831;SDS011;8016;49.928;9.372;2023-05-24T02:28:57;9.90;;;5.30;;
15831;SDS011;8016;49.928;9.372;2023-05-24T02:31:23;10.50;;;5.83;;
15831;SDS011;8016;49.928;9.372;2023-05-24T02:33:52;12.90;;;6.10;;
15831;SDS011;8016;49.928;9.372;2023-05-24T02:36:18;7.07;;;5.17;;
15831;SDS011;8016;49.928;9.372;2023-05-24T02:38:44;12.33;;;5.50;;
15831;SDS011;8016;49.928;9.372;2023-05-24T02:41:10;8.50;;;4.93;;
15831;SDS011;8016;49.928;9.372;2023-05-24T02:43:41;11.70;;;5.67;;
15831;SDS011;8016;49.928;9.372;2023-05-24T02:46:07;8.53;;;5.60;;
15831;SDS011;8016;49.928;9.372;2023-05-24T02:48:33;10.27;;;5.43;;
15831;SDS011;8016;49.928;9.372;2023-05-24T02:51:00;7.17;;;5.10;;
15831;SDS011;8016;49.928;9.372;2023-05-24T02:53:27;6.27;;;4.63;;
15831;SDS011;8016;49.928;9.372;2023-05-24T02:55:53;6.50;;;4.63;;
15831;SDS011;8016;49.928;9.372;2023-05-24T02:58:19;9.23;;;4.67;;
15831;SDS011;8016;49.928;9.372;2023-05-24T03:00:45;6.57;;;4.07;;
15831;SDS011;8016;49.928;9.372;2023-05-24T03:03:11;8.67;;;4.93;;
15831;SDS011;8016;49.928;9.372;2023-05-24T03:05:37;6.80;;;4.57;;
15831;SDS011;8016;49.928;9.372;2023-05-24T03:08:03;7.20;;;4.27;;
15831;SDS011;8016;49.928;9.372;2023-05-24T03:10:30;7.63;;;4.63;;
15831;SDS011;8016;49.928;9.372;2023-05-24T03:12:56;9.27;;;4.27;;
15831;SDS011;8016;49.928;9.372;2023-05-24T03:15:22;7.90;;;4.60;;
15831;SDS011;8016;49.928;9.372;2023-05-24T03:17:48;7.43;;;4.70;;
15831;SDS011;8016;49.928;9.372;2023-05-24T03:20:14;8.60;;;4.77;;
15831;SDS011;8016;49.928;9.372;2023-05-24T03:22:41;7.10;;;4.63;;
15831;SDS011;8016;49.928;9.372;2023-05-24T03:25:07;10.13;;;4.70;;
15831;SDS011;8016;49.928;9.372;2023-05-24T03:27:34;8.63;;;4.63;;
15831;SDS011;8016;49.928;9.372;2023-05-24T03:30:00;10.87;;;5.17;;
15831;SDS011;8016;49.928;9.372;2023-05-24T03:32:26;9.50;;;4.87;;
15831;SDS011;8016;49.928;9.372;2023-05-24T03:34:52;6.13;;;4.80;;
15831;SDS011;8016;49.928;9.372;2023-05-24T03:37:19;14.80;;;6.67;;
15831;SDS011;8016;49.928;9.372;2023-05-24T03:39:45;8.13;;;4.63;;
15831;SDS011;8016;49.928;9.372;2023-05-24T03:42:11;7.50;;;4.60;;
15831;SDS011;8016;49.928;9.372;2023-05-24T03:44:37;8.60;;;4.60;;
15831;SDS011;8016;49.928;9.372;2023-05-24T03:47:04;6.10;;;3.97;;
15831;SDS011;8016;49.928;9.372;2023-05-24T03:49:30;10.10;;;4.70;;
15831;SDS011;8016;49.928;9.372;2023-05-24T03:51:56;8.73;;;4.67;;
15831;SDS011;8016;49.928;9.372;2023-05-24T03:54:22;9.53;;;4.77;;
15831;SDS011;8016;49.928;9.372;2023-05-24T03:56:48;7.23;;;4.43;;
15831;SDS011;8016;49.928;9.372;2023-05-24T03:59:14;7.90;;;4.50;;
15831;SDS011;8016;49.928;9.372;2023-05-24T04:01:40;11.67;;;4.83;;
15831;SDS011;8016;49.928;9.372;2023-05-24T04:04:06;11.30;;;4.50;;
15831;SDS011;8016;49.928;9.372;2023-05-24T04:06:32;8.07;;;4.03;;
15831;SDS011;8016;49.928;9.372;2023-05-24T04:09:00;10.67;;;3.93;;
15831;SDS011;8016;49.928;9.372;2023-05-24T04:11:29;10.50;;;4.93;;
15831;SDS011;8016;49.928;9.372;2023-05-24T04:13:56;6.13;;;4.23;;
15831;SDS011;8016;49.928;9.372;2023-05-24T04:16:24;6.73;;;3.57;;
15831;SDS011;8016;49.928;9.372;2023-05-24T04:18:51;6.50;;;4.33;;
15831;SDS011;8016;49.928;9.372;2023-05-24T04:21:17;10.27;;;4.40;;
15831;SDS011;8016;49.928;9.372;2023-05-24T04:23:43;6.30;;;3.63;;
15831;SDS011;8016;49.928;9.372;2023-05-24T04:26:09;7.00;;;3.90;;
15831;SDS011;8016;49.928;9.372;2023-05-24T04:28:35;10.53;;;4.27;;
15831;SDS011;8016;49.928;9.372;2023-05-24T04:31:03;8.97;;;3.60;;
15831;SDS011;8016;49.928;9.372;2023-05-24T04:33:30;8.20;;;4.53;;
15831;SDS011;8016;49.928;9.372;2023-05-24T04:35:56;9.60;;;4.57;;
15831;SDS011;8016;49.928;9.372;2023-05-24T04:38:25;9.70;;;3.57;;
15831;SDS011;8016;49.928;9.372;2023-05-24T04:40:53;9.80;;;3.87;;
15831;SDS011;8016;49.928;9.372;2023-05-24T04:43:20;7.73;;;3.67;;
15831;SDS011;8016;49.928;9.372;2023-05-24T04:45:46;13.63;;;4.87;;
15831;SDS011;8016;49.928;9.372;2023-05-24T04:48:12;9.50;;;4.33;;
15831;SDS011;8016;49.928;9.372;2023-05-24T04:50:38;16.17;;;8.27;;
15831;SDS011;8016;49.928;9.372;2023-05-24T04:53:04;7.73;;;3.60;;
15831;SDS011;8016;49.928;9.372;2023-05-24T04:55:30;10.97;;;4.00;;
15831;SDS011;8016;49.928;9.372;2023-05-24T04:57:56;5.83;;;3.07;;
15831;SDS011;8016;49.928;9.372;2023-05-24T05:00:22;9.00;;;3.10;;
15831;SDS011;8016;49.928;9.372;2023-05-24T05:02:48;11.33;;;5.10;;
15831;SDS011;8016;49.928;9.372;2023-05-24T05:05:14;10.37;;;3.40;;
15831;SDS011;8016;49.928;9.372;2023-05-24T05:07:40;7.13;;;3.80;;
15831;SDS011;8016;49.928;9.372;2023-05-24T05:10:06;8.70;;;3.37;;
15831;SDS011;8016;49.928;9.372;2023-05-24T05:12:32;11.77;;;3.90;;
15831;SDS011;8016;49.928;9.372;2023-05-24T05:14:58;9.97;;;3.50;;
15831;SDS011;8016;49.928;9.372;2023-05-24T05:17:24;9.27;;;3.43;;
15831;SDS011;8016;49.928;9.372;2023-05-24T05:19:50;8.87;;;3.07;;
15831;SDS011;8016;49.928;9.372;2023-05-24T05:22:16;13.97;;;3.67;;
15831;SDS011;8016;49.928;9.372;2023-05-24T05:24:42;6.80;;;3.23;;
15831;SDS011;8016;49.928;9.372;2023-05-24T05:27:08;9.60;;;3.00;;
15831;SDS011;8016;49.928;9.372;2023-05-24T05:29:34;9.10;;;3.37;;
15831;SDS011;8016;49.928;9.372;2023-05-24T05:32:00;11.90;;;3.47;;
15831;SDS011;8016;49.928;9.372;2023-05-24T05:34:26;9.10;;;3.30;;
15831;SDS011;8016;49.928;9.372;2023-05-24T05:36:52;15.87;;;4.30;;
15831;SDS011;8016;49.928;9.372;2023-05-24T05:39:18;10.07;;;3.57;;
15831;SDS011;8016;49.928;9.372;2023-05-24T05:41:44;11.37;;;4.13;;
15831;SDS011;8016;49.928;9.372;2023-05-24T05:44:10;18.90;;;4.87;;
15831;SDS011;8016;49.928;9.372;2023-05-24T05:46:37;10.47;;;3.30;;
15831;SDS011;8016;49.928;9.372;2023-05-24T05:49:03;12.60;;;4.83;;
15831;SDS011;8016;49.928;9.372;2023-05-24T05:51:29;9.17;;;4.10;;
15831;SDS011;8016;49.928;9.372;2023-05-24T05:53:55;8.97;;;3.60;;
15831;SDS011;8016;49.928;9.372;2023-05-24T05:56:21;9.97;;;3.43;;
15831;SDS011;8016;49.928;9.372;2023-05-24T05:58:47;12.50;;;3.23;;
15831;SDS011;8016;49.928;9.372;2023-05-24T06:01:14;12.93;;;3.67;;
15831;SDS011;8016;49.928;9.372;2023-05-24T06:03:40;9.53;;;3.50;;
15831;SDS011;8016;49.928;9.372;2023-05-24T06:06:06;8.07;;;3.20;;
15831;SDS011;8016;49.928;9.372;2023-05-24T06:08:32;13.17;;;4.30;;
15831;SDS011;8016;49.928;9.372;2023-05-24T06:10:59;12.83;;;3.60;;
15831;SDS011;8016;49.928;9.372;2023-05-24T06:13:25;11.83;;;3.63;;
15831;SDS011;8016;49.928;9.372;2023-05-24T06:15:52;13.97;;;4.20;;
15831;SDS011;8016;49.928;9.372;2023-05-24T06:18:18;7.87;;;3.27;;
15831;SDS011;8016;49.928;9.372;2023-05-24T06:20:45;10.47;;;3.37;;
15831;SDS011;8016;49.928;9.372;2023-05-24T06:23:11;8.93;;;3.30;;
15831;SDS011;8016;49.928;9.372;2023-05-24T06:25:37;11.80;;;3.40;;
15831;SDS011;8016;49.928;9.372;2023-05-24T06:28:04;12.17;;;3.73;;
15831;SDS011;8016;49.928;9.372;2023-05-24T06:30:30;9.07;;;4.20;;
15831;SDS011;8016;49.928;9.372;2023-05-24T06:32:57;9.10;;;3.10;;
15831;SDS011;8016;49.928;9.372;2023-05-24T06:35:24;10.47;;;3.03;;
15831;SDS011;8016;49.928;9.372;2023-05-24T06:37:50;11.17;;;2.93;;
15831;SDS011;8016;49.928;9.372;2023-05-24T06:40:16;11.90;;;3.10;;
15831;SDS011;8016;49.928;9.372;2023-05-24T06:42:42;9.30;;;2.83;;
15831;SDS011;8016;49.928;9.372;2023-05-24T06:45:08;13.80;;;3.23;;
15831;SDS011;8016;49.928;9.372;2023-05-24T06:47:34;7.17;;;2.67;;
15831;SDS011;8016;49.928;9.372;2023-05-24T06:50:01;9.10;;;2.57;;
15831;SDS011;8016;49.928;9.372;2023-05-24T06:52:28;8.87;;;2.47;;
15831;SDS011;8016;49.928;9.372;2023-05-24T06:54:54;6.50;;;2.50;;
15831;SDS011;8016;49.928;9.372;2023-05-24T06:57:20;9.83;;;2.67;;
15831;SDS011;8016;49.928;9.372;2023-05-24T06:59:46;12.20;;;3.40;;
15831;SDS011;8016;49.928;9.372;2023-05-24T07:02:12;10.63;;;3.13;;
15831;SDS011;8016;49.928;9.372;2023-05-24T07:04:38;11.37;;;2.33;;
15831;SDS011;8016;49.928;9.372;2023-05-24T07:07:05;8.77;;;3.23;;
15831;SDS011;8016;49.928;9.372;2023-05-24T07:09:31;7.43;;;2.67;;
15831;SDS011;8016;49.928;9.372;2023-05-24T07:11:58;5.60;;;2.60;;
15831;SDS011;8016;49.928;9.372;2023-05-24T07:14:24;8.33;;;2.67;;
15831;SDS011;8016;49.928;9.372;2023-05-24T07:16:51;7.00;;;2.53;;
15831;SDS011;8016;49.928;9.372;2023-05-24T07:19:19;6.57;;;2.27;;
15831;SDS011;8016;49.928;9.372;2023-05-24T07:21:46;11.33;;;3.10;;
15831;SDS011;8016;49.928;9.372;2023-05-24T07:24:12;6.90;;;2.60;;
15831;SDS011;8016;49.928;9.372;2023-05-24T07:26:38;10.27;;;2.70;;
15831;SDS011;8016;49.928;9.372;2023-05-24T07:29:04;9.33;;;2.60;;
15831;SDS011;8016;49.928;9.372;2023-05-24T07:31:30;8.30;;;2.13;;
15831;SDS011;8016;49.928;9.372;2023-05-24T07:33:58;7.77;;;2.60;;
15831;SDS011;8016;49.928;9.372;2023-05-24T07:36:24;9.43;;;2.67;;
15831;SDS011;8016;49.928;9.372;2023-05-24T07:38:50;9.97;;;2.70;;
15831;SDS011;8016;49.928;9.372;2023-05-24T07:41:17;6.67;;;2.43;;
15831;SDS011;8016;49.928;9.372;2023-05-24T07:43:43;8.70;;;2.37;;
15831;SDS011;8016;49.928;9.372;2023-05-24T07:46:09;8.20;;;2.60;;
15831;SDS011;8016;49.928;9.372;2023-05-24T07:48:35;10.07;;;2.60;;
15831;SDS011;8016;49.928;9.372;2023-05-24T07:51:01;10.03;;;2.53;;
15831;SDS011;8016;49.928;9.372;2023-05-24T07:53:27;7.20;;;2.23;;
15831;SDS011;8016;49.928;9.372;2023-05-24T07:55:53;6.93;;;2.40;;
15831;SDS011;8016;49.928;9.372;2023-05-24T07:58:20;9.80;;;2.70;;
15831;SDS011;8016;49.928;9.372;2023-05-24T08:00:46;9.23;;;2.90;;
15831;SDS011;8016;49.928;9.372;2023-05-24T08:03:12;7.67;;;2.63;;
15831;SDS011;8016;49.928;9.372;2023-05-24T08:05:38;9.23;;;3.07;;
15831;SDS011;8016;49.928;9.372;2023-05-24T08:08:04;5.93;;;2.63;;
15831;SDS011;8016;49.928;9.372;2023-05-24T08:10:31;8.10;;;3.10;;
15831;SDS011;8016;49.928;9.372;2023-05-24T08:12:57;4.87;;;2.13;;
15831;SDS011;8016;49.928;9.372;2023-05-24T08:15:23;3.90;;;1.93;;
15831;SDS011;8016;49.928;9.372;2023-05-24T08:17:49;8.37;;;2.67;;
15831;SDS011;8016;49.928;9.372;2023-05-24T08:20:15;10.10;;;2.33;;
15831;SDS011;8016;49.928;9.372;2023-05-24T08:22:41;9.00;;;2.67;;
15831;SDS011;8016;49.928;9.372;2023-05-24T08:25:08;9.53;;;2.80;;
15831;SDS011;8016;49.928;9.372;2023-05-24T08:27:34;7.00;;;2.83;;
15831;SDS011;8016;49.928;9.372;2023-05-24T08:30:01;8.83;;;2.70;;
15831;SDS011;8016;49.928;9.372;2023-05-24T08:32:28;7.80;;;2.73;;
15831;SDS011;8016;49.928;9.372;2023-05-24T08:34:54;8.33;;;2.77;;
15831;SDS011;8016;49.928;9.372;2023-05-24T08:37:20;6.27;;;2.47;;
15831;SDS011;8016;49.928;9.372;2023-05-24T08:39:47;7.47;;;2.80;;
15831;SDS011;8016;49.928;9.372;2023-05-24T08:42:13;10.30;;;2.90;;
15831;SDS011;8016;49.928;9.372;2023-05-24T08:44:40;8.83;;;3.30;;
15831;SDS011;8016;49.928;9.372;2023-05-24T08:47:06;9.40;;;2.63;;
15831;SDS011;8016;49.928;9.372;2023-05-24T08:49:33;6.27;;;2.37;;
15831;SDS011;8016;49.928;9.372;2023-05-24T08:52:01;11.07;;;2.93;;
15831;SDS011;8016;49.928;9.372;2023-05-24T08:54:27;9.13;;;3.57;;
15831;SDS011;8016;49.928;9.372;2023-05-24T08:56:53;8.30;;;3.07;;
15831;SDS011;8016;49.928;9.372;2023-05-24T08:59:20;11.50;;;2.93;;
15831;SDS011;8016;49.928;9.372;2023-05-24T09:01:47;8.93;;;2.90;;
15831;SDS011;8016;49.928;9.372;2023-05-24T09:04:15;12.23;;;3.40;;
15831;SDS011;8016;49.928;9.372;2023-05-24T09:06:41;10.93;;;3.13;;
15831;SDS011;8016;49.928;9.372;2023-05-24T09:09:08;7.20;;;3.33;;
15831;SDS011;8016;49.928;9.372;2023-05-24T09:11:34;8.50;;;3.27;;
15831;SDS011;8016;49.928;9.372;2023-05-24T09:14:00;11.17;;;3.40;;
15831;SDS011;8016;49.928;9.372;2023-05-24T09:16:27;11.63;;;3.43;;
15831;SDS011;8016;49.928;9.372;2023-05-24T09:18:53;11.60;;;3.20;;
15831;SDS011;8016;49.928;9.372;2023-05-24T09:21:19;9.00;;;3.63;;
15831;SDS011;8016;49.928;9.372;2023-05-24T09:23:46;13.20;;;4.50;;
15831;SDS011;8016;49.928;9.372;2023-05-24T09:26:12;11.67;;;3.33;;
15831;SDS011;8016;49.928;9.372;2023-05-24T09:28:38;14.20;;;3.77;;
15831;SDS011;8016;49.928;9.372;2023-05-24T09:31:05;15.43;;;4.00;;
15831;SDS011;8016;49.928;9.372;2023-05-24T09:33:33;11.00;;;3.40;;
15831;SDS011;8016;49.928;9.372;2023-05-24T09:36:00;12.53;;;3.90;;
15831;SDS011;8016;49.928;9.372;2023-05-24T09:38:26;11.53;;;3.33;;
15831;SDS011;8016;49.928;9.372;2023-05-24T09:40:59;11.33;;;4.03;;
15831;SDS011;8016;49.928;9.372;2023-05-24T09:43:26;13.65;;;3.60;;
15831;SDS011;8016;49.928;9.372;2023-05-24T09:45:54;13.50;;;3.50;;
15831;SDS011;8016;49.928;9.372;2023-05-24T09:48:22;11.43;;;3.90;;
15831;SDS011;8016;49.928;9.372;2023-05-24T09:50:58;12.43;;;3.97;;
15831;SDS011;8016;49.928;9.372;2023-05-24T09:53:25;9.07;;;3.07;;
15831;SDS011;8016;49.928;9.372;2023-05-24T09:55:51;10.60;;;3.73;;
15831;SDS011;8016;49.928;9.372;2023-05-24T09:58:18;11.97;;;3.00;;
15831;SDS011;8016;49.928;9.372;2023-05-24T10:00:45;9.17;;;4.07;;
15831;SDS011;8016;49.928;9.372;2023-05-24T10:03:12;8.30;;;3.20;;
15831;SDS011;8016;49.928;9.372;2023-05-24T10:05:43;9.60;;;3.30;;
15831;SDS011;8016;49.928;9.372;2023-05-24T10:08:09;8.77;;;3.80;;
15831;SDS011;8016;49.928;9.372;2023-05-24T10:10:36;7.57;;;2.80;;
15831;SDS011;8016;49.928;9.372;2023-05-24T10:13:02;15.37;;;3.43;;
15831;SDS011;8016;49.928;9.372;2023-05-24T10:15:28;13.23;;;3.63;;
15831;SDS011;8016;49.928;9.372;2023-05-24T10:17:54;8.67;;;3.30;;
15831;SDS011;8016;49.928;9.372;2023-05-24T10:20:21;8.63;;;3.67;;
15831;SDS011;8016;49.928;9.372;2023-05-24T10:22:56;13.83;;;4.27;;
15831;SDS011;8016;49.928;9.372;2023-05-24T10:25:25;11.90;;;3.33;;
15831;SDS011;8016;49.928;9.372;2023-05-24T10:27:53;8.27;;;3.57;;
15831;SDS011;8016;49.928;9.372;2023-05-24T10:30:25;10.90;;;3.43;;
15831;SDS011;8016;49.928;9.372;2023-05-24T10:32:55;11.03;;;3.53;;
15831;SDS011;8016;49.928;9.372;2023-05-24T10:35:21;9.50;;;3.07;;
15831;SDS011;8016;49.928;9.372;2023-05-24T10:37:48;8.13;;;3.57;;
15831;SDS011;8016;49.928;9.372;2023-05-24T10:40:15;8.40;;;3.30;;
15831;SDS011;8016;49.928;9.372;2023-05-24T10:42:44;11.27;;;4.03;;
15831;SDS011;8016;49.928;9.372;2023-05-24T10:47:51;7.23;;;3.17;;
15831;SDS011;8016;49.928;9.372;2023-05-24T10:50:19;7.40;;;3.23;;
15831;SDS011;8016;49.928;9.372;2023-05-24T10:52:45;10.67;;;3.70;;
15831;SDS011;8016;49.928;9.372;2023-05-24T10:55:13;9.57;;;3.40;;
15831;SDS011;8016;49.928;9.372;2023-05-24T10:57:39;9.00;;;3.60;;
15831;SDS011;8016;49.928;9.372;2023-05-24T11:02:40;7.30;;;3.77;;
15831;SDS011;8016;49.928;9.372;2023-05-24T11:05:06;11.50;;;3.40;;
15831;SDS011;8016;49.928;9.372;2023-05-24T11:07:32;8.50;;;3.40;;
15831;SDS011;8016;49.928;9.372;2023-05-24T11:10:08;11.50;;;3.97;;
15831;SDS011;8016;49.928;9.372;2023-05-24T11:12:34;7.97;;;3.10;;
15831;SDS011;8016;49.928;9.372;2023-05-24T11:15:03;10.60;;;3.13;;
15831;SDS011;8016;49.928;9.372;2023-05-24T11:17:34;8.80;;;3.17;;
15831;SDS011;8016;49.928;9.372;2023-05-24T11:20:19;8.40;;;3.40;;
15831;SDS011;8016;49.928;9.372;2023-05-24T11:22:45;9.13;;;3.70;;
15831;SDS011;8016;49.928;9.372;2023-05-24T11:25:11;11.93;;;4.03;;
15831;SDS011;8016;49.928;9.372;2023-05-24T11:27:41;7.23;;;3.07;;
15831;SDS011;8016;49.928;9.372;2023-05-24T11:30:08;7.70;;;3.40;;
15831;SDS011;8016;49.928;9.372;2023-05-24T11:32:36;11.43;;;3.40;;
15831;SDS011;8016;49.928;9.372;2023-05-24T11:35:06;9.70;;;3.03;;
15831;SDS011;8016;49.928;9.372;2023-05-24T11:37:35;7.40;;;3.37;;
15831;SDS011;8016;49.928;9.372;2023-05-24T11:40:02;8.33;;;3.03;;
15831;SDS011;8016;49.928;9.372;2023-05-24T11:42:34;12.47;;;3.67;;
15831;SDS011;8016;49.928;9.372;2023-05-24T11:45:01;7.70;;;3.30;;
15831;SDS011;8016;49.928;9.372;2023-05-24T11:47:28;10.67;;;3.67;;
15831;SDS011;8016;49.928;9.372;2023-05-24T11:49:54;8.10;;;3.37;;
15831;SDS011;8016;49.928;9.372;2023-05-24T11:52:20;9.00;;;3.50;;
15831;SDS011;8016;49.928;9.372;2023-05-24T11:54:47;5.77;;;2.77;;
15831;SDS011;8016;49.928;9.372;2023-05-24T11:57:13;8.80;;;2.83;;
15831;SDS011;8016;49.928;9.372;2023-05-24T11:59:40;9.07;;;3.37;;
15831;SDS011;8016;49.928;9.372;2023-05-24T12:02:06;7.43;;;2.83;;
15831;SDS011;8016;49.928;9.372;2023-05-24T12:04:33;7.47;;;3.10;;
15831;SDS011;8016;49.928;9.372;2023-05-24T12:06:59;8.67;;;3.40;;
15831;SDS011;8016;49.928;9.372;2023-05-24T12:09:25;7.73;;;3.03;;
15831;SDS011;8016;49.928;9.372;2023-05-24T12:11:52;9.53;;;3.50;;
15831;SDS011;8016;49.928;9.372;2023-05-24T12:14:20;9.17;;;3.37;;
15831;SDS011;8016;49.928;9.372;2023-05-24T12:16:47;11.17;;;3.67;;
15831;SDS011;8016;49.928;9.372;2023-05-24T12:19:17;10.10;;;3.80;;
15831;SDS011;8016;49.928;9.372;2023-05-24T12:21:43;8.20;;;3.33;;
15831;SDS011;8016;49.928;9.372;2023-05-24T12:24:10;8.37;;;3.43;;
15831;SDS011;8016;49.928;9.372;2023-05-24T12:26:40;9.03;;;3.17;;
15831;SDS011;8016;49.928;9.372;2023-05-24T12:29:07;9.07;;;3.27;;
15831;SDS011;8016;49.928;9.372;2023-05-24T12:31:33;8.57;;;3.43;;
15831;SDS011;8016;49.928;9.372;2023-05-24T12:33:59;8.40;;;3.13;;
15831;SDS011;8016;49.928;9.372;2023-05-24T12:36:29;8.13;;;3.33;;
15831;SDS011;8016;49.928;9.372;2023-05-24T12:38:58;5.73;;;3.10;;
15831;SDS011;8016;49.928;9.372;2023-05-24T12:41:24;8.23;;;3.53;;
15831;SDS011;8016;49.928;9.372;2023-05-24T12:43:50;9.10;;;3.73;;
15831;SDS011;8016;49.928;9.372;2023-05-24T12:46:17;6.67;;;3.50;;
15831;SDS011;8016;49.928;9.372;2023-05-24T12:48:43;8.17;;;3.47;;
15831;SDS011;8016;49.928;9.372;2023-05-24T12:51:09;9.90;;;3.17;;
15831;SDS011;8016;49.928;9.372;2023-05-24T12:53:36;12.13;;;3.90;;
15831;SDS011;8016;49.928;9.372;2023-05-24T12:56:02;8.40;;;3.50;;
15831;SDS011;8016;49.928;9.372;2023-05-24T12:58:28;6.83;;;3.43;;
15831;SDS011;8016;49.928;9.372;2023-05-24T13:00:54;9.20;;;3.87;;
15831;SDS011;8016;49.928;9.372;2023-05-24T13:03:20;8.63;;;3.40;;
15831;SDS011;8016;49.928;9.372;2023-05-24T13:05:46;10.60;;;3.50;;
15831;SDS011;8016;49.928;9.372;2023-05-24T13:08:12;8.80;;;3.73;;
15831;SDS011;8016;49.928;9.372;2023-05-24T13:10:38;7.73;;;3.83;;
15831;SDS011;8016;49.928;9.372;2023-05-24T13:13:04;8.13;;;3.43;;
15831;SDS011;8016;49.928;9.372;2023-05-24T13:15:31;8.23;;;3.57;;
15831;SDS011;8016;49.928;9.372;2023-05-24T13:17:57;8.17;;;3.60;;
15831;SDS011;8016;49.928;9.372;2023-05-24T13:20:23;8.03;;;3.40;;
15831;SDS011;8016;49.928;9.372;2023-05-24T13:22:49;9.07;;;3.90;;
15831;SDS011;8016;49.928;9.372;2023-05-24T13:25:15;7.67;;;2.97;;
15831;SDS011;8016;49.928;9.372;2023-05-24T13:27:41;8.17;;;3.50;;
15831;SDS011;8016;49.928;9.372;2023-05-24T13:30:07;6.90;;;3.53;;
15831;SDS011;8016;49.928;9.372;2023-05-24T13:32:33;9.07;;;3.27;;
15831;SDS011;8016;49.928;9.372;2023-05-24T13:34:59;6.87;;;3.00;;
15831;SDS011;8016;49.928;9.372;2023-05-24T13:37:26;8.87;;;3.20;;
15831;SDS011;8016;49.928;9.372;2023-05-24T13:39:52;6.90;;;3.10;;
15831;SDS011;8016;49.928;9.372;2023-05-24T13:42:18;10.17;;;3.53;;
15831;SDS011;8016;49.928;9.372;2023-05-24T13:44:44;9.20;;;3.17;;
15831;SDS011;8016;49.928;9.372;2023-05-24T13:47:10;6.60;;;2.80;;
15831;SDS011;8016;49.928;9.372;2023-05-24T13:49:37;8.53;;;3.33;;
15831;SDS011;8016;49.928;9.372;2023-05-24T13:52:03;6.77;;;3.17;;
15831;SDS011;8016;49.928;9.372;2023-05-24T13:54:29;7.43;;;2.90;;
15831;SDS011;8016;49.928;9.372;2023-05-24T13:56:56;7.57;;;3.00;;
15831;SDS011;8016;49.928;9.372;2023-05-24T13:59:22;11.73;;;3.10;;
15831;SDS011;8016;49.928;9.372;2023-05-24T14:01:48;11.13;;;3.43;;
15831;SDS011;8016;49.928;9.372;2023-05-24T14:04:14;9.03;;;3.50;;
15831;SDS011;8016;49.928;9.372;2023-05-24T14:06:40;7.53;;;3.27;;
15831;SDS011;8016;49.928;9.372;2023-05-24T14:09:06;8.83;;;3.13;;
15831;SDS011;8016;49.928;9.372;2023-05-24T14:11:33;8.90;;;2.90;;
15831;SDS011;8016;49.928;9.372;2023-05-24T14:13:59;7.80;;;3.73;;
15831;SDS011;8016;49.928;9.372;2023-05-24T14:16:26;8.90;;;3.70;;
15831;SDS011;8016;49.928;9.372;2023-05-24T14:18:52;8.80;;;3.90;;
15831;SDS011;8016;49.928;9.372;2023-05-24T14:21:18;9.50;;;3.00;;
15831;SDS011;8016;49.928;9.372;2023-05-24T14:23:45;9.53;;;3.57;;
15831;SDS011;8016;49.928;9.372;2023-05-24T14:26:11;9.37;;;3.50;;
15831;SDS011;8016;49.928;9.372;2023-05-24T14:28:37;8.30;;;3.00;;
15831;SDS011;8016;49.928;9.372;2023-05-24T14:31:03;11.43;;;4.00;;
15831;SDS011;8016;49.928;9.372;2023-05-24T14:33:29;7.43;;;3.10;;
15831;SDS011;8016;49.928;9.372;2023-05-24T14:35:55;7.80;;;3.20;;
15831;SDS011;8016;49.928;9.372;2023-05-24T14:38:21;8.80;;;3.33;;
15831;SDS011;8016;49.928;9.372;2023-05-24T14:40:48;9.00;;;3.63;;
15831;SDS011;8016;49.928;9.372;2023-05-24T14:43:15;10.87;;;4.20;;
15831;SDS011;8016;49.928;9.372;2023-05-24T14:45:41;7.80;;;2.93;;
15831;SDS011;8016;49.928;9.372;2023-05-24T14:48:07;6.00;;;3.07;;
15831;SDS011;8016;49.928;9.372;2023-05-24T14:50:35;9.83;;;3.57;;
15831;SDS011;8016;49.928;9.372;2023-05-24T14:53:01;9.93;;;3.70;;
15831;SDS011;8016;49.928;9.372;2023-05-24T14:55:33;6.17;;;3.33;;
15831;SDS011;8016;49.928;9.372;2023-05-24T14:57:59;8.43;;;3.37;;
15831;SDS011;8016;49.928;9.372;2023-05-24T15:00:25;7.57;;;3.10;;
15831;SDS011;8016;49.928;9.372;2023-05-24T15:02:51;9.87;;;4.13;;
15831;SDS011;8016;49.928;9.372;2023-05-24T15:05:18;6.13;;;3.03;;
15831;SDS011;8016;49.928;9.372;2023-05-24T15:07:43;13.03;;;3.73;;
15831;SDS011;8016;49.928;9.372;2023-05-24T15:10:09;29.53;;;5.53;;